Time;durP1;ratioP1;P1;durP2;ratioP2;P2;SDS_P1;SDS_P2;PMS_P1;PMS_P2;Temp;Humidity;BMP_temperature;BMP_pressure;BME280_temperature;BME280_humidity;BME280_pressure;Samples;Min_cycle;Max_cycle;Signal;HPM_P1;HPM_P2
2021/06/05 00:01:32;;;;;;;19.13;16.23;;;21.10;99.90;;;;;;5009113;28;20053;-79
2021/06/05 00:03:58;;;;;;;20.75;16.75;;;21.00;99.90;;;;;;5009130;28;20041;-78
2021/06/05 00:06:24;;;;;;;23.20;17.08;;;21.00;99.90;;;;;;5009083;28;20022;-79
2021/06/05 00:08:51;;;;;;;21.77;16.77;;;20.90;99.90;;;;;;5009608;28;20037;-80
2021/06/05 00:11:19;;;;;;;20.77;17.63;;;20.80;99.90;;;;;;5011991;28;20065;-78
2021/06/05 00:13:48;;;;;;;19.48;16.08;;;20.80;99.90;;;;;;5012534;28;20030;-78
2021/06/05 00:16:17;;;;;;;19.08;15.75;;;20.80;99.90;;;;;;5012820;28;20046;-79
2021/06/05 00:18:44;;;;;;;19.75;16.65;;;20.80;99.90;;;;;;5012534;28;20452;-79
2021/06/05 00:21:10;;;;;;;22.85;15.70;;;20.80;99.90;;;;;;5012904;28;20313;-79
2021/06/05 00:23:36;;;;;;;21.75;15.98;;;20.80;99.90;;;;;;5012711;28;20677;-79
2021/06/05 00:26:02;;;;;;;20.85;15.85;;;20.80;99.90;;;;;;5013620;28;20117;-78
2021/06/05 00:28:28;;;;;;;20.70;16.00;;;20.80;99.90;;;;;;5012541;28;20042;-78
2021/06/05 00:30:54;;;;;;;19.55;16.17;;;20.70;99.90;;;;;;5012336;28;20069;-79
2021/06/05 00:33:20;;;;;;;20.23;16.42;;;20.60;99.90;;;;;;5011263;28;20053;-77
2021/06/05 00:35:46;;;;;;;18.98;17.02;;;20.50;99.90;;;;;;5013937;28;20108;-78
2021/06/05 00:38:12;;;;;;;21.95;16.80;;;20.50;99.90;;;;;;5012352;28;20183;-79
2021/06/05 00:40:42;;;;;;;21.50;16.98;;;20.50;99.90;;;;;;5012094;28;20276;-78
2021/06/05 00:43:10;;;;;;;23.17;17.17;;;20.40;99.90;;;;;;5012092;28;20257;-78
2021/06/05 00:45:37;;;;;;;;;;;20.40;99.90;;;;;;5012570;28;20017;-79
2021/06/05 00:48:03;;;;;;;22.10;17.20;;;20.40;99.90;;;;;;5013837;28;19933;-78
2021/06/05 00:50:29;;;;;;;20.13;17.23;;;20.30;99.90;;;;;;5011737;28;20040;-76
2021/06/05 00:52:55;;;;;;;22.15;17.52;;;20.30;99.90;;;;;;5011662;28;20378;-79
2021/06/05 00:55:24;;;;;;;24.55;17.35;;;20.20;99.90;;;;;;5011992;28;20038;-78
2021/06/05 00:57:49;;;;;;;21.58;17.00;;;20.20;99.90;;;;;;5010755;28;20074;-79
2021/06/05 01:00:30;;;;;;;22.77;17.67;;;20.20;99.90;;;;;;5013735;28;20022;-78
2021/06/05 01:03:03;;;;;;;22.48;17.67;;;20.30;99.90;;;;;;5011786;28;20365;-79
2021/06/05 01:05:30;;;;;;;21.65;17.50;;;20.30;99.90;;;;;;5011776;28;20403;-78
2021/06/05 01:08:10;;;;;;;24.35;17.75;;;20.30;99.90;;;;;;5011493;28;20038;-78
2021/06/05 01:10:40;;;;;;;19.25;16.23;;;20.40;99.90;;;;;;5011680;28;20099;-79
2021/06/05 01:13:21;;;;;;;22.48;17.17;;;20.30;99.90;;;;;;5011513;28;20092;-79
2021/06/05 01:16:02;;;;;;;23.08;18.05;;;20.40;99.90;;;;;;5011458;28;20042;-79
2021/06/05 01:18:41;;;;;;;21.83;16.63;;;20.30;99.90;;;;;;5010462;28;20026;-79
2021/06/05 01:21:37;;;;;;;22.02;17.58;;;20.30;99.90;;;;;;5028191;28;20065;-80
2021/06/05 01:24:47;;;;;;;26.33;17.45;;;20.10;99.90;;;;;;5011620;28;20034;-80
2021/06/05 01:27:18;;;;;;;21.15;16.73;;;20.00;99.90;;;;;;5011275;28;20084;-79
2021/06/05 01:29:50;;;;;;;18.90;16.88;;;20.00;99.90;;;;;;5026889;28;20133;-79
2021/06/05 01:32:16;;;;;;;22.33;17.23;;;20.10;99.90;;;;;;5009489;28;20049;-80
2021/06/05 01:34:54;;;;;;;19.98;16.95;;;20.00;99.90;;;;;;5010927;28;20044;-79
2021/06/05 01:37:21;;;;;;;25.13;17.45;;;20.00;99.90;;;;;;5006502;28;20121;-79
2021/06/05 01:39:49;;;;;;;25.83;18.37;;;20.00;99.90;;;;;;4991270;28;20039;-80
2021/06/05 01:42:25;;;;;;;22.00;18.15;;;20.00;99.90;;;;;;4992288;28;20019;-79
2021/06/05 01:44:54;;;;;;;19.88;17.23;;;20.10;99.90;;;;;;5006781;28;20096;-78
2021/06/05 01:47:21;;;;;;;20.23;17.45;;;19.90;99.90;;;;;;4990010;28;20400;-78
2021/06/05 01:49:47;;;;;;;19.77;17.40;;;19.90;99.90;;;;;;4991367;28;20121;-78
2021/06/05 01:52:22;;;;;;;23.33;18.23;;;19.80;99.90;;;;;;4989949;28;20109;-79
2021/06/05 01:55:14;;;;;;;30.70;18.75;;;19.80;99.90;;;;;;4990354;28;20027;-79
2021/06/05 01:57:44;;;;;;;26.42;18.17;;;19.90;99.90;;;;;;4989541;28;20088;-79
2021/06/05 02:00:37;;;;;;;27.80;18.48;;;19.80;99.90;;;;;;4991351;28;20474;-79
2021/06/05 02:03:05;;;;;;;21.05;18.00;;;19.70;99.90;;;;;;4990057;28;20076;-77
2021/06/05 02:05:31;;;;;;;23.07;18.53;;;19.70;99.90;;;;;;4991185;28;20141;-78
2021/06/05 02:07:57;;;;;;;24.23;17.95;;;19.70;99.90;;;;;;4991063;28;20049;-79
2021/06/05 02:10:27;;;;;;;24.25;18.70;;;19.60;99.90;;;;;;4991035;28;20062;-79
2021/06/05 02:12:54;;;;;;;23.17;19.13;;;19.60;99.90;;;;;;4990869;28;20104;-78
2021/06/05 02:15:26;;;;;;;24.90;18.20;;;19.60;99.90;;;;;;4989546;28;20037;-78
2021/06/05 02:17:53;;;;;;;21.15;18.00;;;19.60;99.90;;;;;;4992207;28;20268;-79
2021/06/05 02:20:34;;;;;;;25.30;20.10;;;19.60;99.90;;;;;;4990686;28;20038;-79
2021/06/05 02:23:05;;;;;;;27.00;19.85;;;19.40;99.90;;;;;;4990487;28;20042;-78
2021/06/05 02:25:31;;;;;;;23.23;20.27;;;19.40;99.90;;;;;;4990564;28;20035;-78
2021/06/05 02:28:01;;;;;;;25.33;18.40;;;19.50;99.90;;;;;;4990450;28;20061;-78
2021/06/05 02:30:29;;;;;;;23.83;20.38;;;19.50;99.90;;;;;;4990804;28;20030;-78
2021/06/05 02:32:56;;;;;;;23.45;19.15;;;19.60;99.90;;;;;;4991787;28;20069;-78
2021/06/05 02:35:26;;;;;;;23.33;18.58;;;19.60;99.90;;;;;;4989569;28;20278;-79
2021/06/05 02:37:53;;;;;;;20.52;18.17;;;19.70;99.90;;;;;;4990472;28;20381;-79
2021/06/05 02:40:24;;;;;;;29.38;19.70;;;19.60;99.90;;;;;;4990586;28;20117;-78
2021/06/05 02:42:50;;;;;;;23.25;19.45;;;19.50;99.90;;;;;;4989152;28;20109;-78
2021/06/05 02:45:29;;;;;;;22.92;17.73;;;19.40;99.90;;;;;;4991965;28;20110;-77
2021/06/05 02:47:59;;;;;;;22.50;18.08;;;19.40;99.90;;;;;;5006121;28;20045;-78
2021/06/05 02:50:33;;;;;;;24.85;20.08;;;19.30;99.90;;;;;;4990070;28;20079;-78
2021/06/05 02:52:58;;;;;;;23.05;20.48;;;19.30;99.90;;;;;;4989145;28;20038;-78
2021/06/05 02:55:24;;;;;;;26.05;18.73;;;19.40;99.90;;;;;;4990299;28;20034;-78
2021/06/05 02:57:50;;;;;;;24.95;19.20;;;19.40;99.90;;;;;;4990339;28;20132;-78
2021/06/05 03:00:23;;;;;;;21.80;18.77;;;19.50;99.90;;;;;;4990479;28;20145;-79
2021/06/05 03:02:49;;;;;;;24.27;18.92;;;19.40;99.90;;;;;;4990382;28;20046;-79
2021/06/05 03:05:14;;;;;;;27.33;19.13;;;19.40;99.90;;;;;;4974591;28;20034;-78
2021/06/05 03:07:40;;;;;;;21.83;18.08;;;19.30;99.90;;;;;;4981613;28;20652;-79
2021/06/05 03:10:06;;;;;;;24.23;19.08;;;19.30;99.90;;;;;;4990238;28;20043;-79
2021/06/05 03:12:32;;;;;;;22.20;18.85;;;19.40;99.90;;;;;;4989887;28;20030;-80
2021/06/05 03:14:59;;;;;;;22.48;18.80;;;19.40;99.90;;;;;;4991462;28;20046;-78
2021/06/05 03:17:27;;;;;;;25.45;20.45;;;19.30;99.90;;;;;;4988667;28;20137;-78
2021/06/05 03:19:53;;;;;;;28.17;18.92;;;19.40;99.90;;;;;;4989749;28;20034;-78
2021/06/05 03:22:19;;;;;;;22.50;18.58;;;19.40;99.90;;;;;;4989784;28;20377;-77
2021/06/05 03:24:44;;;;;;;22.95;19.23;;;19.50;99.90;;;;;;4990050;28;20043;-79
2021/06/05 03:27:10;;;;;;;30.83;20.40;;;19.40;99.90;;;;;;4991589;28;20042;-79
2021/06/05 03:29:38;;;;;;;24.35;19.17;;;19.50;99.90;;;;;;4989835;28;20046;-79
2021/06/05 03:32:04;;;;;;;23.60;20.25;;;19.50;99.90;;;;;;4988700;28;20483;-80
2021/06/05 03:34:30;;;;;;;29.08;19.98;;;19.60;99.90;;;;;;4989799;28;20419;-79
2021/06/05 03:36:56;;;;;;;30.65;22.20;;;19.60;99.90;;;;;;4984407;28;20472;-78
2021/06/05 03:39:22;;;;;;;24.50;19.60;;;19.70;99.90;;;;;;4970751;28;20357;-80
2021/06/05 03:41:48;;;;;;;25.65;19.55;;;19.70;99.90;;;;;;4991369;28;20646;-78
2021/06/05 03:44:14;;;;;;;26.08;20.73;;;19.70;99.90;;;;;;4988492;28;20043;-78
2021/06/05 03:46:40;;;;;;;25.92;19.02;;;19.70;99.90;;;;;;4992326;28;20476;-77
2021/06/05 03:49:06;;;;;;;28.30;19.90;;;19.80;99.90;;;;;;4993803;28;20311;-79
2021/06/05 03:51:32;;;;;;;23.83;19.67;;;19.80;99.90;;;;;;4993414;28;20034;-78
2021/06/05 03:53:58;;;;;;;27.00;19.73;;;19.80;99.90;;;;;;4995227;28;20170;-78
2021/06/05 03:56:23;;;;;;;21.08;17.50;;;19.80;99.90;;;;;;5008764;28;20130;-77
2021/06/05 03:58:51;;;;;;;27.33;19.05;;;19.90;99.90;;;;;;4992192;28;20054;-77
2021/06/05 04:01:20;;;;;;;28.60;19.77;;;19.90;99.90;;;;;;4993321;28;20069;-79
2021/06/05 04:03:46;;;;;;;29.20;19.15;;;19.90;99.90;;;;;;4992144;28;20038;-78
2021/06/05 04:06:13;;;;;;;25.38;19.50;;;19.90;99.90;;;;;;4993746;28;20105;-78
2021/06/05 04:08:39;;;;;;;22.17;18.10;;;19.90;99.90;;;;;;4993102;28;20671;-78
2021/06/05 04:11:06;;;;;;;25.17;18.73;;;19.90;99.90;;;;;;4993138;28;20130;-78
2021/06/05 04:13:32;;;;;;;22.98;19.45;;;19.90;99.90;;;;;;4992721;28;20105;-78
2021/06/05 04:15:58;;;;;;;22.70;18.48;;;20.00;99.90;;;;;;4992954;28;20157;-78
2021/06/05 04:18:36;;;;;;;21.98;18.30;;;20.00;99.90;;;;;;4993161;28;20101;-77
2021/06/05 04:21:03;;;;;;;;;;;20.00;99.90;;;;;;4994902;28;20042;-78
2021/06/05 04:23:29;;;;;;;20.83;17.70;;;20.00;99.90;;;;;;4993069;28;19909;-79
2021/06/05 04:25:55;;;;;;;21.83;18.15;;;20.00;99.90;;;;;;4992916;28;20356;-79
2021/06/05 04:28:23;;;;;;;24.35;19.02;;;20.00;99.90;;;;;;4992694;28;20046;-78
2021/06/05 04:30:49;;;;;;;21.77;17.60;;;20.00;99.90;;;;;;4992715;28;20065;-77
2021/06/05 04:33:17;;;;;;;23.13;18.75;;;20.10;99.90;;;;;;4994221;28;20368;-79
2021/06/05 04:35:43;;;;;;;26.23;19.58;;;20.00;99.90;;;;;;4992683;28;20042;-77
2021/06/05 04:38:10;;;;;;;26.50;18.25;;;20.00;99.90;;;;;;4993658;28;20041;-77
2021/06/05 04:40:37;;;;;;;25.40;19.10;;;20.10;99.90;;;;;;4992798;28;20053;-78
2021/06/05 04:43:03;;;;;;;23.27;18.57;;;20.10;99.90;;;;;;4992079;28;20291;-78
2021/06/05 04:45:29;;;;;;;21.63;17.67;;;20.10;99.90;;;;;;4992837;28;20034;-78
2021/06/05 04:47:55;;;;;;;24.75;18.40;;;20.10;99.90;;;;;;4993242;28;20022;-79
2021/06/05 04:50:24;;;;;;;23.25;17.48;;;20.10;99.90;;;;;;4992580;28;20074;-79
2021/06/05 04:52:50;;;;;;;25.75;18.63;;;20.20;99.90;;;;;;4992643;28;20038;-81
2021/06/05 04:55:15;;;;;;;24.23;17.58;;;20.20;99.90;;;;;;4992258;28;20110;-79
2021/06/05 04:57:41;;;;;;;22.73;17.13;;;20.20;99.90;;;;;;4991487;28;20097;-77
2021/06/05 05:00:10;;;;;;;24.35;18.52;;;20.20;99.90;;;;;;4993952;28;20088;-78
2021/06/05 05:02:36;;;;;;;25.02;18.08;;;20.30;99.90;;;;;;4992261;28;20034;-79
2021/06/05 05:05:04;;;;;;;22.63;17.17;;;20.30;99.90;;;;;;5001629;28;20464;-78
2021/06/05 05:07:30;;;;;;;19.05;15.43;;;20.30;99.90;;;;;;4991193;28;20066;-78
2021/06/05 05:09:55;;;;;;;19.92;15.98;;;20.30;99.90;;;;;;4992041;28;20417;-78
2021/06/05 05:12:21;;;;;;;33.00;16.95;;;20.30;99.90;;;;;;4992186;28;20169;-79
2021/06/05 05:14:47;;;;;;;22.92;16.30;;;20.30;99.90;;;;;;4993564;28;20023;-79
2021/06/05 05:17:13;;;;;;;26.15;16.08;;;20.30;99.90;;;;;;4991745;28;20042;-80
2021/06/05 05:19:38;;;;;;;21.73;15.52;;;20.40;99.90;;;;;;4991890;28;20031;-78
2021/06/05 05:22:05;;;;;;;22.02;15.80;;;20.40;99.90;;;;;;4991841;28;20428;-79
2021/06/05 05:24:31;;;;;;;21.05;16.10;;;20.30;99.90;;;;;;4991722;28;20113;-78
2021/06/05 05:26:56;;;;;;;23.55;16.40;;;20.30;99.90;;;;;;4993499;28;20165;-78
2021/06/05 05:29:22;;;;;;;19.77;16.00;;;20.40;99.90;;;;;;4990608;28;20092;-78
2021/06/05 05:31:48;;;;;;;23.08;16.00;;;20.40;99.90;;;;;;4991532;28;20377;-78
2021/06/05 05:34:13;;;;;;;24.42;16.55;;;20.40;99.90;;;;;;4990641;28;20077;-79
2021/06/05 05:36:39;;;;;;;23.02;16.23;;;20.40;99.90;;;;;;4991490;28;20038;-80
2021/06/05 05:39:15;;;;;;;23.90;16.85;;;20.40;99.90;;;;;;4993326;28;20026;-79
2021/06/05 05:41:42;;;;;;;26.02;16.42;;;20.40;99.90;;;;;;4991226;28;20038;-79
2021/06/05 05:44:08;;;;;;;29.23;16.85;;;20.40;99.90;;;;;;4991176;28;20045;-79
2021/06/05 05:46:35;;;;;;;24.95;16.75;;;20.50;99.90;;;;;;4990209;28;20035;-80
2021/06/05 05:49:02;;;;;;;23.83;16.20;;;20.40;99.90;;;;;;4991752;28;20046;-79
2021/06/05 05:51:28;;;;;;;25.33;16.25;;;20.40;99.90;;;;;;4991223;28;20026;-81
2021/06/05 05:53:54;;;;;;;25.92;17.80;;;20.30;99.90;;;;;;4991805;28;20040;-80
2021/06/05 05:56:23;;;;;;;22.67;16.65;;;20.40;99.90;;;;;;4990278;28;20043;-78
2021/06/05 05:58:51;;;;;;;29.13;22.52;;;20.30;99.90;;;;;;4991030;28;20038;-80
2021/06/05 06:01:20;;;;;;;21.17;15.95;;;20.50;99.90;;;;;;4991195;28;20072;-78
2021/06/05 06:03:50;;;;;;;25.65;17.55;;;20.50;99.90;;;;;;4990969;28;20424;-79
2021/06/05 06:06:16;;;;;;;21.50;16.70;;;20.60;99.90;;;;;;4992572;28;20022;-79
2021/06/05 06:08:42;;;;;;;27.20;17.52;;;20.60;99.90;;;;;;4971531;28;20516;-84
2021/06/05 06:11:09;;;;;;;23.35;16.20;;;20.60;99.90;;;;;;4986135;28;20042;-80
2021/06/05 06:13:36;;;;;;;21.20;16.17;;;20.70;99.90;;;;;;4990831;28;20035;-76
2021/06/05 06:16:02;;;;;;;28.63;18.15;;;20.70;99.90;;;;;;4990185;28;20373;-76
2021/06/05 06:18:28;;;;;;;29.98;16.13;;;20.80;99.90;;;;;;4989413;28;20057;-76
2021/06/05 06:20:56;;;;;;;23.83;17.08;;;20.80;99.90;;;;;;4972894;28;20054;-75
2021/06/05 06:23:25;;;;;;;23.65;16.98;;;20.80;99.90;;;;;;4987399;28;20515;-77
2021/06/05 06:25:52;;;;;;;22.25;17.23;;;20.90;99.90;;;;;;4990146;28;20047;-81
2021/06/05 06:28:22;;;;;;;22.45;16.27;;;20.90;99.90;;;;;;4990943;28;20110;-79
2021/06/05 06:30:48;;;;;;;28.23;18.08;;;21.00;99.90;;;;;;4990576;28;20037;-79
2021/06/05 06:33:15;;;;;;;24.48;17.38;;;21.00;99.90;;;;;;4992313;28;20022;-81
2021/06/05 06:35:41;;;;;;;23.92;17.75;;;21.10;99.90;;;;;;4989877;28;20057;-80
2021/06/05 06:38:17;;;;;;;24.15;17.10;;;21.20;99.90;;;;;;4989656;28;20026;-82
2021/06/05 06:40:43;;;;;;;26.17;16.98;;;21.20;99.90;;;;;;4990134;28;20057;-83
2021/06/05 06:43:12;;;;;;;25.75;17.98;;;21.30;99.90;;;;;;4990640;28;20061;-81
2021/06/05 06:45:38;;;;;;;25.40;17.90;;;21.20;99.90;;;;;;4988681;28;20068;-84
2021/06/05 06:48:05;;;;;;;26.27;17.35;;;21.20;99.90;;;;;;4990725;28;20033;-77
2021/06/05 06:50:31;;;;;;;24.25;16.17;;;21.20;99.90;;;;;;4990300;28;20133;-78
2021/06/05 06:52:57;;;;;;;27.40;17.15;;;21.30;99.90;;;;;;4990087;28;20045;-77
2021/06/05 06:55:24;;;;;;;26.55;16.77;;;21.40;99.90;;;;;;4989836;28;20113;-77
2021/06/05 06:57:50;;;;;;;20.27;15.35;;;21.40;99.90;;;;;;4990257;28;20096;-76
2021/06/05 07:00:25;;;;;;;22.85;16.75;;;21.50;99.90;;;;;;4991682;28;20100;-76
2021/06/05 07:02:50;;;;;;;27.80;17.25;;;21.50;99.90;;;;;;4990030;28;20042;-77
2021/06/05 07:05:16;;;;;;;24.13;15.68;;;21.50;99.90;;;;;;4989076;28;20092;-77
2021/06/05 07:07:42;;;;;;;23.55;16.30;;;21.60;99.90;;;;;;4988842;28;20030;-77
2021/06/05 07:10:09;;;;;;;25.40;16.65;;;21.70;99.90;;;;;;4988329;28;20070;-77
2021/06/05 07:12:35;;;;;;;25.83;16.50;;;21.70;99.90;;;;;;4989780;28;20326;-79
2021/06/05 07:15:01;;;;;;;27.45;16.60;;;21.80;99.90;;;;;;4990666;28;20089;-75
2021/06/05 07:17:26;;;;;;;24.55;16.38;;;21.90;99.90;;;;;;4988877;28;20511;-76
2021/06/05 07:19:52;;;;;;;24.70;16.30;;;22.00;99.90;;;;;;4990407;28;20049;-75
2021/06/05 07:22:18;;;;;;;25.73;16.30;;;22.10;99.90;;;;;;4993426;28;20030;-72
2021/06/05 07:24:43;;;;;;;21.50;16.17;;;22.10;99.90;;;;;;4990174;28;20031;-78
2021/06/05 07:27:09;;;;;;;22.10;16.05;;;22.20;99.90;;;;;;4976006;28;20270;-72
2021/06/05 07:29:36;;;;;;;24.95;15.27;;;22.30;99.90;;;;;;4974161;28;20039;-84
2021/06/05 07:32:04;;;;;;;24.02;16.15;;;22.40;99.90;;;;;;4987750;28;20050;-74
2021/06/05 07:34:31;;;;;;;25.33;16.45;;;22.50;99.90;;;;;;4992422;28;20114;-72
2021/06/05 07:37:03;;;;;;;23.42;15.18;;;22.60;99.90;;;;;;4993615;28;20030;-75
2021/06/05 07:39:29;;;;;;;19.65;14.73;;;22.60;99.70;;;;;;4993140;28;20029;-71
2021/06/05 07:41:59;;;;;;;26.08;16.10;;;22.70;99.80;;;;;;4994676;28;20437;-71
2021/06/05 07:44:27;;;;;;;25.27;15.20;;;22.80;99.80;;;;;;4993095;28;20121;-72
2021/06/05 07:46:56;;;;;;;21.55;16.05;;;22.80;99.80;;;;;;4993234;28;20129;-71
2021/06/05 07:49:23;;;;;;;23.20;15.55;;;22.90;99.70;;;;;;4993241;28;20035;-71
2021/06/05 07:51:49;;;;;;;25.50;16.05;;;22.90;99.80;;;;;;4992051;28;20538;-71
2021/06/05 07:54:15;;;;;;;20.58;15.02;;;22.90;99.40;;;;;;4993712;28;20090;-71
2021/06/05 07:56:41;;;;;;;23.33;16.60;;;23.00;99.40;;;;;;4992053;28;20448;-71
2021/06/05 07:59:07;;;;;;;20.17;15.57;;;23.00;99.30;;;;;;4993020;28;20091;-71
2021/06/05 08:01:32;;;;;;;19.83;15.20;;;22.90;99.20;;;;;;4991693;28;20042;-70
2021/06/05 08:03:58;;;;;;;24.30;16.48;;;23.00;99.30;;;;;;4987551;28;20039;-71
2021/06/05 08:06:23;;;;;;;21.85;15.48;;;23.00;99.30;;;;;;4973589;28;20046;-72
2021/06/05 08:08:49;;;;;;;24.13;15.65;;;23.00;99.30;;;;;;4975063;28;20035;-71
2021/06/05 08:11:17;;;;;;;21.20;15.90;;;23.10;99.40;;;;;;4992960;28;20582;-73
2021/06/05 08:13:42;;;;;;;26.90;16.77;;;23.10;99.30;;;;;;5012685;28;20038;-73
2021/06/05 08:16:08;;;;;;;23.40;15.90;;;23.00;99.30;;;;;;5012696;28;20096;-73
2021/06/05 08:18:34;;;;;;;25.90;17.05;;;23.10;99.40;;;;;;5012082;28;20411;-78
2021/06/05 08:21:04;;;;;;;20.80;16.20;;;23.10;99.30;;;;;;5013666;28;20117;-74
2021/06/05 08:23:31;;;;;;;23.70;16.92;;;23.10;99.40;;;;;;5012414;28;20030;-78
2021/06/05 08:25:58;;;;;;;22.13;15.90;;;23.10;99.30;;;;;;5012109;28;20487;-76
2021/06/05 08:28:24;;;;;;;25.40;15.80;;;23.10;99.30;;;;;;5011104;28;20046;-73
2021/06/05 08:30:53;;;;;;;21.60;15.57;;;23.30;99.30;;;;;;5011899;28;20038;-74
2021/06/05 08:33:20;;;;;;;23.95;16.17;;;23.30;99.20;;;;;;5012282;28;20129;-74
2021/06/05 08:35:46;;;;;;;22.30;15.90;;;23.40;99.00;;;;;;5013963;28;20030;-74
2021/06/05 08:38:15;;;;;;;25.80;17.50;;;23.50;99.00;;;;;;5012112;28;20049;-74
2021/06/05 08:41:07;;;;;;;23.52;16.40;;;23.60;99.10;;;;;;5012074;28;20038;-72
2021/06/05 08:43:38;;;;;;;23.27;16.30;;;23.70;99.00;;;;;;5011492;28;20121;-72
2021/06/05 08:46:07;;;;;;;24.08;17.30;;;23.70;99.00;;;;;;5012150;28;20064;-72
2021/06/05 08:48:34;;;;;;;30.02;17.10;;;23.80;98.80;;;;;;5010668;28;20033;-75
2021/06/05 08:51:15;;;;;;;25.45;17.13;;;23.70;98.70;;;;;;5013551;28;20040;-79
2021/06/05 08:53:41;;;;;;;24.90;16.92;;;23.80;98.80;;;;;;5012003;28;20108;-72
2021/06/05 08:56:31;;;;;;;26.05;20.02;;;23.90;98.60;;;;;;5011853;28;20042;-83
2021/06/05 08:59:02;;;;;;;23.65;17.85;;;23.90;98.60;;;;;;5010971;28;20124;-74
2021/06/05 09:01:42;;;;;;;26.40;18.65;;;24.00;98.50;;;;;;5011058;28;20049;-74
2021/06/05 09:04:14;;;;;;;24.45;17.15;;;24.00;98.60;;;;;;5011151;28;20061;-73
2021/06/05 09:06:45;;;;;;;23.45;18.70;;;24.00;98.30;;;;;;5011396;28;20434;-74
2021/06/05 09:09:16;;;;;;;24.08;18.80;;;24.20;98.20;;;;;;5011843;28;20512;-76
2021/06/05 09:11:41;;;;;;;27.13;20.48;;;24.40;98.40;;;;;;5010942;28;20049;-74
2021/06/05 09:14:07;;;;;;;24.17;16.50;;;24.60;97.90;;;;;;5011508;28;20486;-75
2021/06/05 09:16:40;;;;;;;29.88;20.30;;;24.80;97.70;;;;;;5011020;28;20034;-76
2021/06/05 09:19:09;;;;;;;49.10;18.67;;;25.10;97.70;;;;;;5010901;28;20037;-80
2021/06/05 09:21:41;;;;;;;25.75;18.98;;;25.20;97.50;;;;;;5011019;28;20449;-76
2021/06/05 09:24:11;;;;;;;23.27;20.65;;;25.40;97.20;;;;;;5012869;28;20025;-76
2021/06/05 09:26:38;;;;;;;27.75;20.92;;;25.50;96.90;;;;;;5011444;28;20120;-74
2021/06/05 09:29:11;;;;;;;27.48;22.33;;;25.60;96.60;;;;;;5011182;28;20034;-75
2021/06/05 09:32:13;;;;;;;29.45;22.15;;;25.60;96.30;;;;;;5010785;28;20232;-74
2021/06/05 09:34:52;;;;;;;25.38;19.40;;;25.60;96.70;;;;;;5010732;28;20139;-72
2021/06/05 09:37:35;;;;;;;34.38;21.60;;;25.70;96.50;;;;;;5010877;28;20034;-73
2021/06/05 09:40:20;;;;;;;30.00;22.17;;;25.70;96.70;;;;;;5010578;28;20092;-74
2021/06/05 09:43:08;;;;;;;29.83;23.17;;;25.80;96.30;;;;;;5010498;28;20096;-72
2021/06/05 09:45:38;;;;;;;29.85;19.80;;;25.80;96.20;;;;;;5010616;28;20022;-73
2021/06/05 09:48:35;;;;;;;23.27;18.20;;;26.00;96.10;;;;;;5012367;28;20022;-72
2021/06/05 09:51:05;;;;;;;24.00;19.92;;;26.00;96.10;;;;;;5009416;28;20555;-73
2021/06/05 09:53:35;;;;;;;28.88;23.45;;;26.20;95.80;;;;;;5010397;28;20056;-72
2021/06/05 09:56:28;;;;;;;29.38;23.45;;;26.30;95.70;;;;;;5010832;28;20033;-73
2021/06/05 09:59:07;;;;;;;24.95;19.48;;;25.90;96.00;;;;;;5008628;28;20072;-70
2021/06/05 10:01:36;;;;;;;31.23;19.80;;;26.20;96.10;;;;;;5010250;28;20042;-71
2021/06/05 10:04:08;;;;;;;32.80;24.00;;;26.40;95.80;;;;;;5009602;28;20125;-70
2021/06/05 10:06:36;;;;;;;27.65;21.52;;;26.60;95.50;;;;;;5010576;28;20041;-72
2021/06/05 10:09:24;;;;;;;25.73;20.15;;;26.60;95.40;;;;;;5012153;28;20038;-71
2021/06/05 10:11:53;;;;;;;26.20;18.88;;;26.60;95.00;;;;;;5011058;28;20029;-71
2021/06/05 10:14:22;;;;;;;33.50;23.08;;;26.70;95.30;;;;;;5010460;28;20308;-71
2021/06/05 10:17:14;;;;;;;26.92;20.17;;;26.70;94.90;;;;;;5010033;28;20423;-72
2021/06/05 10:20:14;;;;;;;25.08;18.83;;;26.80;95.00;;;;;;5009829;28;20129;-71
2021/06/05 10:22:41;;;;;;;29.95;18.52;;;26.70;94.70;;;;;;5010132;28;20037;-71
2021/06/05 10:25:09;;;;;;;29.90;21.95;;;26.90;94.70;;;;;;5009980;28;20037;-71
2021/06/05 10:27:41;;;;;;;25.65;18.60;;;26.90;94.80;;;;;;5009284;28;20112;-72
2021/06/05 10:30:29;;;;;;;29.15;21.33;;;27.00;94.50;;;;;;5011515;28;20037;-74
2021/06/05 10:32:58;;;;;;;28.10;18.95;;;27.20;94.20;;;;;;5002750;28;20033;-72
2021/06/05 10:35:34;;;;;;;23.95;18.25;;;27.20;94.20;;;;;;5010276;28;20084;-74
2021/06/05 10:38:25;;;;;;;39.35;18.23;;;27.20;94.10;;;;;;5005460;28;20030;-68
2021/06/05 10:40:52;;;;;;;28.35;18.02;;;27.20;93.90;;;;;;5002368;28;20053;-70
2021/06/05 10:43:17;;;;;;;28.38;18.05;;;26.90;94.00;;;;;;5009440;28;20037;-72
2021/06/05 10:45:46;;;;;;;24.58;17.58;;;26.80;94.10;;;;;;5008453;28;20471;-73
2021/06/05 10:48:34;;;;;;;41.10;19.05;;;26.70;94.40;;;;;;5011253;28;20157;-73
2021/06/05 10:51:23;;;;;;;32.30;17.95;;;26.70;94.50;;;;;;5010070;28;20135;-72
2021/06/05 10:54:07;;;;;;;32.30;15.68;;;26.50;94.60;;;;;;5010035;28;20042;-72
2021/06/05 10:56:55;;;;;;;21.15;16.58;;;26.40;94.90;;;;;;5009196;28;20034;-72
2021/06/05 10:59:44;;;;;;;;;;;26.30;94.90;;;;;;5009250;28;20053;-72
2021/06/05 11:02:35;;;;;;;30.38;19.02;;;26.10;95.30;;;;;;5009300;28;20263;-72
2021/06/05 11:05:01;;;;;;;25.42;20.63;;;25.90;95.10;;;;;;5009505;28;20643;-72
2021/06/05 11:07:31;;;;;;;26.40;19.95;;;25.80;95.20;;;;;;5009802;28;20042;-72
2021/06/05 11:10:00;;;;;;;30.88;21.65;;;25.60;95.40;;;;;;5009669;28;20088;-71
2021/06/05 11:12:25;;;;;;;28.80;23.13;;;25.60;95.60;;;;;;5008971;28;20045;-71
2021/06/05 11:14:56;;;;;;;36.20;24.48;;;25.60;95.90;;;;;;5010836;28;20480;-71
2021/06/05 11:17:32;;;;;;;29.10;24.67;;;25.50;96.40;;;;;;5009258;28;20053;-71
2021/06/05 11:20:05;;;;;;;32.05;24.75;;;25.50;97.10;;;;;;5009536;28;20045;-73
2021/06/05 11:22:56;;;;;;;26.70;23.83;;;25.30;97.40;;;;;;5008399;28;20045;-71
2021/06/05 11:25:33;;;;;;;29.60;23.98;;;25.30;98.10;;;;;;5009658;28;20037;-72
2021/06/05 11:28:20;;;;;;;27.05;22.85;;;25.20;98.20;;;;;;5009418;28;20030;-71
2021/06/05 11:30:46;;;;;;;32.53;22.77;;;25.20;98.10;;;;;;5009240;28;20431;-72
2021/06/05 11:33:43;;;;;;;28.83;21.05;;;25.10;98.10;;;;;;5009797;28;20034;-72
2021/06/05 11:36:38;;;;;;;23.58;19.67;;;24.90;97.50;;;;;;5008348;28;20120;-72
2021/06/05 11:39:13;;;;;;;29.55;20.90;;;24.60;97.60;;;;;;5009590;28;20026;-71
2021/06/05 11:41:49;;;;;;;25.52;20.80;;;24.50;97.70;;;;;;5008299;28;20424;-71
2021/06/05 11:44:28;;;;;;;25.38;18.92;;;24.40;97.90;;;;;;5009459;28;20034;-72
2021/06/05 11:46:58;;;;;;;23.35;18.02;;;24.40;97.90;;;;;;5009003;28;20042;-71
2021/06/05 11:50:19;;;;;;;30.02;22.42;;;24.40;97.80;;;;;;5008976;28;20034;-71
2021/06/05 11:53:03;;;;;;;29.15;21.33;;;24.40;98.30;;;;;;4985657;28;20538;-71
2021/06/05 11:55:38;;;;;;;31.02;22.63;;;24.30;98.70;;;;;;5008992;28;20038;-71
2021/06/05 11:58:13;;;;;;;29.23;23.60;;;24.20;99.70;;;;;;5008630;28;20034;-73
2021/06/05 12:00:46;;;;;;;33.53;23.70;;;24.30;99.90;;;;;;5008872;28;20041;-72
2021/06/05 12:03:30;;;;;;;31.70;25.98;;;24.20;99.90;;;;;;5010391;28;20038;-71
2021/06/05 12:06:29;;;;;;;34.50;28.08;;;23.90;99.90;;;;;;5010141;28;20135;-72
2021/06/05 12:09:14;;;;;;;35.70;29.35;;;23.80;99.90;;;;;;5013110;28;20042;-72
2021/06/05 12:11:48;;;;;;;34.90;29.25;;;23.80;99.90;;;;;;5012749;28;20030;-73
2021/06/05 12:14:37;;;;;;;41.22;29.33;;;23.80;99.90;;;;;;5012515;28;20498;-71
2021/06/05 12:17:08;;;;;;;41.20;30.63;;;23.60;99.90;;;;;;5012587;28;20151;-71
2021/06/05 12:19:35;;;;;;;38.17;31.77;;;23.50;99.90;;;;;;5012537;28;20030;-72
2021/06/05 12:22:25;;;;;;;37.65;31.00;;;23.50;99.90;;;;;;5011248;28;20049;-73
2021/06/05 12:24:53;;;;;;;39.75;31.52;;;23.40;99.90;;;;;;5011605;28;20052;-71
2021/06/05 12:27:29;;;;;;;46.50;31.80;;;23.30;99.90;;;;;;5012554;28;20022;-69
2021/06/05 12:30:04;;;;;;;37.63;30.23;;;23.30;99.90;;;;;;5014113;28;20475;-72
2021/06/05 12:32:29;;;;;;;41.53;31.92;;;23.30;99.90;;;;;;5012346;28;20092;-73
2021/06/05 12:34:55;;;;;;;49.88;36.13;;;23.30;99.90;;;;;;5012016;28;20046;-73
2021/06/05 12:37:27;;;;;;;40.40;32.05;;;23.20;99.90;;;;;;5011099;28;20025;-72
2021/06/05 12:39:56;;;;;;;50.90;37.00;;;23.10;99.90;;;;;;5011998;28;20081;-73
2021/06/05 12:42:36;;;;;;;44.42;34.75;;;23.10;99.90;;;;;;5011589;28;20072;-71
2021/06/05 12:45:11;;;;;;;48.38;36.05;;;23.00;99.90;;;;;;5013322;28;20033;-73
2021/06/05 12:47:41;;;;;;;45.00;33.90;;;22.90;99.90;;;;;;5011656;28;20069;-72